sensor_id;sensor_type;location;lat;lon;timestamp;temperature;humidity
8945;DHT22;4507;40.232;29.132;2023-02-27T00:00:20;15.40;52.90
8945;DHT22;4507;40.232;29.132;2023-02-27T00:02:50;15.50;53.50
8945;DHT22;4507;40.232;29.132;2023-02-27T00:05:21;15.50;52.80
8945;DHT22;4507;40.232;29.132;2023-02-27T00:07:50;15.50;52.80
8945;DHT22;4507;40.232;29.132;2023-02-27T00:10:20;15.50;53.00
8945;DHT22;4507;40.232;29.132;2023-02-27T00:12:49;15.60;52.90
8945;DHT22;4507;40.232;29.132;2023-02-27T00:15:19;15.60;52.80
8945;DHT22;4507;40.232;29.132;2023-02-27T00:17:48;15.60;52.50
8945;DHT22;4507;40.232;29.132;2023-02-27T00:20:18;15.60;52.40
8945;DHT22;4507;40.232;29.132;2023-02-27T00:22:47;15.60;52.30
8945;DHT22;4507;40.232;29.132;2023-02-27T00:25:17;15.60;52.10
8945;DHT22;4507;40.232;29.132;2023-02-27T00:27:47;15.60;52.10
8945;DHT22;4507;40.232;29.132;2023-02-27T00:30:16;15.70;52.10
8945;DHT22;4507;40.232;29.132;2023-02-27T00:32:45;15.80;52.00
8945;DHT22;4507;40.232;29.132;2023-02-27T00:35:14;15.80;51.70
8945;DHT22;4507;40.232;29.132;2023-02-27T00:37:43;15.90;51.30
8945;DHT22;4507;40.232;29.132;2023-02-27T00:40:13;15.90;51.10
8945;DHT22;4507;40.232;29.132;2023-02-27T00:42:42;16.00;51.10
8945;DHT22;4507;40.232;29.132;2023-02-27T00:45:14;16.10;50.80
8945;DHT22;4507;40.232;29.132;2023-02-27T00:48:02;16.20;50.70
8945;DHT22;4507;40.232;29.132;2023-02-27T00:50:31;16.30;50.90
8945;DHT22;4507;40.232;29.132;2023-02-27T00:53:00;16.30;50.70
8945;DHT22;4507;40.232;29.132;2023-02-27T00:55:29;16.30;50.70
8945;DHT22;4507;40.232;29.132;2023-02-27T00:57:58;16.30;50.10
8945;DHT22;4507;40.232;29.132;2023-02-27T01:00:29;16.40;50.10
8945;DHT22;4507;40.232;29.132;2023-02-27T01:02:59;16.40;49.40
8945;DHT22;4507;40.232;29.132;2023-02-27T01:05:30;16.50;49.40
8945;DHT22;4507;40.232;29.132;2023-02-27T01:07:59;16.50;49.20
8945;DHT22;4507;40.232;29.132;2023-02-27T01:10:28;16.60;48.90
8945;DHT22;4507;40.232;29.132;2023-02-27T01:12:57;16.70;49.00
8945;DHT22;4507;40.232;29.132;2023-02-27T01:15:28;16.80;48.80
8945;DHT22;4507;40.232;29.132;2023-02-27T01:17:57;16.80;48.60
8945;DHT22;4507;40.232;29.132;2023-02-27T01:20:27;16.80;48.30
8945;DHT22;4507;40.232;29.132;2023-02-27T01:22:56;16.90;48.30
8945;DHT22;4507;40.232;29.132;2023-02-27T01:25:25;16.90;47.90
8945;DHT22;4507;40.232;29.132;2023-02-27T01:27:55;17.00;48.00
8945;DHT22;4507;40.232;29.132;2023-02-27T01:30:23;17.10;47.80
8945;DHT22;4507;40.232;29.132;2023-02-27T01:32:54;17.10;47.20
8945;DHT22;4507;40.232;29.132;2023-02-27T01:35:24;17.20;46.80
8945;DHT22;4507;40.232;29.132;2023-02-27T01:37:53;17.30;46.80
8945;DHT22;4507;40.232;29.132;2023-02-27T01:40:22;17.40;46.70
8945;DHT22;4507;40.232;29.132;2023-02-27T01:42:54;17.50;46.50
8945;DHT22;4507;40.232;29.132;2023-02-27T01:45:32;17.50;46.50
8945;DHT22;4507;40.232;29.132;2023-02-27T01:48:11;17.50;46.60
8945;DHT22;4507;40.232;29.132;2023-02-27T01:50:44;17.60;46.50
8945;DHT22;4507;40.232;29.132;2023-02-27T01:53:14;17.50;46.40
8945;DHT22;4507;40.232;29.132;2023-02-27T01:55:46;17.50;46.40
8945;DHT22;4507;40.232;29.132;2023-02-27T01:58:34;17.50;46.30
8945;DHT22;4507;40.232;29.132;2023-02-27T02:01:03;17.50;46.60
8945;DHT22;4507;40.232;29.132;2023-02-27T02:03:36;17.50;46.70
8945;DHT22;4507;40.232;29.132;2023-02-27T02:06:07;17.50;46.40
8945;DHT22;4507;40.232;29.132;2023-02-27T02:08:40;17.50;46.50
8945;DHT22;4507;40.232;29.132;2023-02-27T02:11:11;17.50;46.10
8945;DHT22;4507;40.232;29.132;2023-02-27T02:13:41;17.50;45.90
8945;DHT22;4507;40.232;29.132;2023-02-27T02:16:21;17.50;45.60
8945;DHT22;4507;40.232;29.132;2023-02-27T02:19:10;17.60;45.60
8945;DHT22;4507;40.232;29.132;2023-02-27T02:22:22;17.70;45.30
8945;DHT22;4507;40.232;29.132;2023-02-27T02:25:21;17.80;45.30
8945;DHT22;4507;40.232;29.132;2023-02-27T02:28:09;17.90;44.90
8945;DHT22;4507;40.232;29.132;2023-02-27T02:31:18;17.90;44.80
8945;DHT22;4507;40.232;29.132;2023-02-27T02:34:17;18.00;44.40
8945;DHT22;4507;40.232;29.132;2023-02-27T02:40:18;18.10;44.30
8945;DHT22;4507;40.232;29.132;2023-02-27T02:42:55;18.10;44.10
8945;DHT22;4507;40.232;29.132;2023-02-27T02:45:33;18.10;44.10
8945;DHT22;4507;40.232;29.132;2023-02-27T02:48:12;18.10;44.00
8945;DHT22;4507;40.232;29.132;2023-02-27T02:50:48;18.10;43.90
8945;DHT22;4507;40.232;29.132;2023-02-27T02:53:26;18.10;44.00
8945;DHT22;4507;40.232;29.132;2023-02-27T02:56:11;18.10;43.80
8945;DHT22;4507;40.232;29.132;2023-02-27T02:58:45;18.10;43.90
8945;DHT22;4507;40.232;29.132;2023-02-27T03:01:20;18.10;43.80
8945;DHT22;4507;40.232;29.132;2023-02-27T03:03:55;18.10;43.60
8945;DHT22;4507;40.232;29.132;2023-02-27T03:06:29;18.10;43.60
8945;DHT22;4507;40.232;29.132;2023-02-27T03:09:02;18.10;43.70
8945;DHT22;4507;40.232;29.132;2023-02-27T03:11:38;18.10;43.60
8945;DHT22;4507;40.232;29.132;2023-02-27T03:14:14;18.10;43.80
8945;DHT22;4507;40.232;29.132;2023-02-27T03:16:47;18.10;43.90
8945;DHT22;4507;40.232;29.132;2023-02-27T03:19:21;18.00;43.90
8945;DHT22;4507;40.232;29.132;2023-02-27T03:21:53;18.00;44.00
8945;DHT22;4507;40.232;29.132;2023-02-27T03:24:26;17.90;44.00
8945;DHT22;4507;40.232;29.132;2023-02-27T03:26:58;17.90;44.00
8945;DHT22;4507;40.232;29.132;2023-02-27T03:29:36;17.80;44.20
8945;DHT22;4507;40.232;29.132;2023-02-27T03:32:10;17.80;44.30
8945;DHT22;4507;40.232;29.132;2023-02-27T03:34:41;17.70;44.30
8945;DHT22;4507;40.232;29.132;2023-02-27T03:37:19;17.70;44.40
8945;DHT22;4507;40.232;29.132;2023-02-27T03:39:51;17.60;44.50
8945;DHT22;4507;40.232;29.132;2023-02-27T03:42:32;17.60;44.50
8945;DHT22;4507;40.232;29.132;2023-02-27T03:45:14;17.50;44.40
8945;DHT22;4507;40.232;29.132;2023-02-27T03:47:46;17.50;44.90
8945;DHT22;4507;40.232;29.132;2023-02-27T03:50:16;17.50;44.80
8945;DHT22;4507;40.232;29.132;2023-02-27T03:52:51;17.50;45.00
8945;DHT22;4507;40.232;29.132;2023-02-27T03:55:23;17.50;45.00
8945;DHT22;4507;40.232;29.132;2023-02-27T03:57:54;17.50;45.00
8945;DHT22;4507;40.232;29.132;2023-02-27T04:00:25;17.50;45.20
8945;DHT22;4507;40.232;29.132;2023-02-27T04:03:13;17.40;45.30
8945;DHT22;4507;40.232;29.132;2023-02-27T04:05:42;17.40;45.50
8945;DHT22;4507;40.232;29.132;2023-02-27T04:08:33;17.30;45.60
8945;DHT22;4507;40.232;29.132;2023-02-27T04:11:23;17.20;45.80
8945;DHT22;4507;40.232;29.132;2023-02-27T04:17:03;17.10;46.40
8945;DHT22;4507;40.232;29.132;2023-02-27T04:19:48;17.00;46.60
8945;DHT22;4507;40.232;29.132;2023-02-27T04:22:29;16.90;46.80
8945;DHT22;4507;40.232;29.132;2023-02-27T04:25:10;16.90;46.90
8945;DHT22;4507;40.232;29.132;2023-02-27T04:27:50;16.80;47.00
8945;DHT22;4507;40.232;29.132;2023-02-27T04:30:25;16.80;47.10
8945;DHT22;4507;40.232;29.132;2023-02-27T04:32:59;16.80;47.10
8945;DHT22;4507;40.232;29.132;2023-02-27T04:35:36;16.70;47.20
8945;DHT22;4507;40.232;29.132;2023-02-27T04:38:13;16.70;47.50
8945;DHT22;4507;40.232;29.132;2023-02-27T04:40:47;16.70;47.40
8945;DHT22;4507;40.232;29.132;2023-02-27T04:43:38;16.70;47.70
8945;DHT22;4507;40.232;29.132;2023-02-27T04:46:12;16.70;47.90
8945;DHT22;4507;40.232;29.132;2023-02-27T04:48:47;16.60;47.80
8945;DHT22;4507;40.232;29.132;2023-02-27T04:51:23;16.60;48.00
8945;DHT22;4507;40.232;29.132;2023-02-27T04:53:56;16.60;48.20
8945;DHT22;4507;40.232;29.132;2023-02-27T04:56:29;16.60;48.30
8945;DHT22;4507;40.232;29.132;2023-02-27T04:59:02;16.60;48.40
8945;DHT22;4507;40.232;29.132;2023-02-27T05:01:38;16.60;48.40
8945;DHT22;4507;40.232;29.132;2023-02-27T05:04:12;16.50;48.30
8945;DHT22;4507;40.232;29.132;2023-02-27T05:06:47;16.50;48.20
8945;DHT22;4507;40.232;29.132;2023-02-27T05:09:21;16.60;48.40
8945;DHT22;4507;40.232;29.132;2023-02-27T05:11:57;16.60;48.30
8945;DHT22;4507;40.232;29.132;2023-02-27T05:14:30;16.60;48.30
8945;DHT22;4507;40.232;29.132;2023-02-27T05:17:06;16.60;48.30
8945;DHT22;4507;40.232;29.132;2023-02-27T05:19:54;16.50;48.30
8945;DHT22;4507;40.232;29.132;2023-02-27T05:22:27;16.60;48.60
8945;DHT22;4507;40.232;29.132;2023-02-27T05:25:05;16.50;48.60
8945;DHT22;4507;40.232;29.132;2023-02-27T05:27:38;16.50;48.70
8945;DHT22;4507;40.232;29.132;2023-02-27T05:30:16;16.50;48.90
8945;DHT22;4507;40.232;29.132;2023-02-27T05:32:52;16.40;49.10
8945;DHT22;4507;40.232;29.132;2023-02-27T05:35:26;16.40;49.30
8945;DHT22;4507;40.232;29.132;2023-02-27T05:38:01;16.30;49.50
8945;DHT22;4507;40.232;29.132;2023-02-27T05:40:36;16.30;49.50
8945;DHT22;4507;40.232;29.132;2023-02-27T05:43:26;16.20;49.80
8945;DHT22;4507;40.232;29.132;2023-02-27T05:46:02;16.20;50.10
8945;DHT22;4507;40.232;29.132;2023-02-27T05:48:37;16.20;50.40
8945;DHT22;4507;40.232;29.132;2023-02-27T05:51:09;16.20;50.70
8945;DHT22;4507;40.232;29.132;2023-02-27T05:53:42;16.20;50.70
8945;DHT22;4507;40.232;29.132;2023-02-27T05:56:15;16.10;50.90
8945;DHT22;4507;40.232;29.132;2023-02-27T05:58:50;16.10;51.20
8945;DHT22;4507;40.232;29.132;2023-02-27T06:01:22;16.10;51.50
8945;DHT22;4507;40.232;29.132;2023-02-27T06:03:52;16.10;51.60
8945;DHT22;4507;40.232;29.132;2023-02-27T06:06:21;16.00;51.60
8945;DHT22;4507;40.232;29.132;2023-02-27T06:08:50;16.00;51.90
8945;DHT22;4507;40.232;29.132;2023-02-27T06:11:20;16.00;52.10
8945;DHT22;4507;40.232;29.132;2023-02-27T06:13:49;16.10;52.50
8945;DHT22;4507;40.232;29.132;2023-02-27T06:16:17;16.10;52.70
8945;DHT22;4507;40.232;29.132;2023-02-27T06:18:46;16.10;52.60
8945;DHT22;4507;40.232;29.132;2023-02-27T06:21:17;16.10;52.50
8945;DHT22;4507;40.232;29.132;2023-02-27T06:23:46;16.20;52.30
8945;DHT22;4507;40.232;29.132;2023-02-27T06:26:15;16.20;52.00
8945;DHT22;4507;40.232;29.132;2023-02-27T06:28:44;16.40;52.10
8945;DHT22;4507;40.232;29.132;2023-02-27T06:31:13;16.50;52.20
8945;DHT22;4507;40.232;29.132;2023-02-27T06:33:43;16.50;52.20
8945;DHT22;4507;40.232;29.132;2023-02-27T06:36:12;16.60;52.50
8945;DHT22;4507;40.232;29.132;2023-02-27T06:38:42;16.70;52.20
8945;DHT22;4507;40.232;29.132;2023-02-27T06:41:11;16.80;52.40
8945;DHT22;4507;40.232;29.132;2023-02-27T06:43:40;16.80;52.10
8945;DHT22;4507;40.232;29.132;2023-02-27T06:46:09;16.90;52.10
8945;DHT22;4507;40.232;29.132;2023-02-27T06:48:38;17.00;52.10
8945;DHT22;4507;40.232;29.132;2023-02-27T06:51:07;17.00;52.00
8945;DHT22;4507;40.232;29.132;2023-02-27T06:53:36;17.10;51.80
8945;DHT22;4507;40.232;29.132;2023-02-27T06:56:07;17.20;52.10
8945;DHT22;4507;40.232;29.132;2023-02-27T06:58:36;17.30;52.10
8945;DHT22;4507;40.232;29.132;2023-02-27T07:01:05;17.30;52.10
8945;DHT22;4507;40.232;29.132;2023-02-27T07:03:34;17.40;52.00
8945;DHT22;4507;40.232;29.132;2023-02-27T07:06:03;17.50;51.80
8945;DHT22;4507;40.232;29.132;2023-02-27T07:08:32;17.50;51.70
8945;DHT22;4507;40.232;29.132;2023-02-27T07:11:02;17.50;51.70
8945;DHT22;4507;40.232;29.132;2023-02-27T07:13:32;17.70;51.40
8945;DHT22;4507;40.232;29.132;2023-02-27T07:16:01;17.70;50.80
8945;DHT22;4507;40.232;29.132;2023-02-27T07:18:31;17.80;49.80
8945;DHT22;4507;40.232;29.132;2023-02-27T07:21:00;17.90;47.40
8945;DHT22;4507;40.232;29.132;2023-02-27T07:23:28;18.10;47.40
8945;DHT22;4507;40.232;29.132;2023-02-27T07:25:58;18.30;47.50
8945;DHT22;4507;40.232;29.132;2023-02-27T07:28:27;18.40;46.90
8945;DHT22;4507;40.232;29.132;2023-02-27T07:30:58;18.50;45.80
8945;DHT22;4507;40.232;29.132;2023-02-27T07:33:27;18.60;45.90
8945;DHT22;4507;40.232;29.132;2023-02-27T07:35:56;18.70;45.90
8945;DHT22;4507;40.232;29.132;2023-02-27T07:38:25;18.80;45.80
8945;DHT22;4507;40.232;29.132;2023-02-27T07:40:55;18.80;44.50
8945;DHT22;4507;40.232;29.132;2023-02-27T07:43:25;18.90;44.30
8945;DHT22;4507;40.232;29.132;2023-02-27T07:45:54;19.00;43.70
8945;DHT22;4507;40.232;29.132;2023-02-27T07:48:24;19.00;43.40
8945;DHT22;4507;40.232;29.132;2023-02-27T07:50:53;19.00;43.00
8945;DHT22;4507;40.232;29.132;2023-02-27T07:53:22;19.10;42.80
8945;DHT22;4507;40.232;29.132;2023-02-27T07:55:53;19.00;42.80
8945;DHT22;4507;40.232;29.132;2023-02-27T07:58:22;19.10;42.60
8945;DHT22;4507;40.232;29.132;2023-02-27T08:00:52;19.00;42.50
8945;DHT22;4507;40.232;29.132;2023-02-27T08:03:21;19.00;42.50
8945;DHT22;4507;40.232;29.132;2023-02-27T08:05:51;19.00;42.70
8945;DHT22;4507;40.232;29.132;2023-02-27T08:08:21;19.00;43.10
8945;DHT22;4507;40.232;29.132;2023-02-27T08:10:49;19.00;43.40
8945;DHT22;4507;40.232;29.132;2023-02-27T08:13:18;19.00;43.30
8945;DHT22;4507;40.232;29.132;2023-02-27T08:16:07;19.10;43.00
8945;DHT22;4507;40.232;29.132;2023-02-27T08:18:37;19.20;43.10
8945;DHT22;4507;40.232;29.132;2023-02-27T08:21:07;19.20;42.80
8945;DHT22;4507;40.232;29.132;2023-02-27T08:23:36;19.40;42.80
8945;DHT22;4507;40.232;29.132;2023-02-27T08:26:06;19.30;42.80
8945;DHT22;4507;40.232;29.132;2023-02-27T08:28:35;19.40;43.00
8945;DHT22;4507;40.232;29.132;2023-02-27T08:31:04;19.60;43.20
8945;DHT22;4507;40.232;29.132;2023-02-27T08:33:34;19.70;42.60
8945;DHT22;4507;40.232;29.132;2023-02-27T08:36:04;19.80;42.30
8945;DHT22;4507;40.232;29.132;2023-02-27T08:38:35;19.90;42.20
8945;DHT22;4507;40.232;29.132;2023-02-27T08:41:04;20.00;41.90
8945;DHT22;4507;40.232;29.132;2023-02-27T08:43:33;20.00;41.60
8945;DHT22;4507;40.232;29.132;2023-02-27T08:46:02;20.10;41.70
8945;DHT22;4507;40.232;29.132;2023-02-27T08:48:31;20.10;41.70
8945;DHT22;4507;40.232;29.132;2023-02-27T08:51:00;20.10;41.70
8945;DHT22;4507;40.232;29.132;2023-02-27T08:53:29;20.20;41.90
8945;DHT22;4507;40.232;29.132;2023-02-27T08:55:59;20.30;41.90
8945;DHT22;4507;40.232;29.132;2023-02-27T08:58:28;20.40;41.00
8945;DHT22;4507;40.232;29.132;2023-02-27T09:00:57;20.50;41.10
8945;DHT22;4507;40.232;29.132;2023-02-27T09:03:26;20.60;41.00
8945;DHT22;4507;40.232;29.132;2023-02-27T09:05:55;20.70;40.50
8945;DHT22;4507;40.232;29.132;2023-02-27T09:08:24;20.80;40.60
8945;DHT22;4507;40.232;29.132;2023-02-27T09:10:55;20.90;39.80
8945;DHT22;4507;40.232;29.132;2023-02-27T09:13:26;21.00;39.50
8945;DHT22;4507;40.232;29.132;2023-02-27T09:15:55;21.10;39.50
8945;DHT22;4507;40.232;29.132;2023-02-27T09:18:24;21.10;39.10
8945;DHT22;4507;40.232;29.132;2023-02-27T09:20:53;21.20;39.10
8945;DHT22;4507;40.232;29.132;2023-02-27T09:23:22;21.30;39.30
8945;DHT22;4507;40.232;29.132;2023-02-27T09:25:51;21.40;39.20
8945;DHT22;4507;40.232;29.132;2023-02-27T09:28:20;21.50;39.60
8945;DHT22;4507;40.232;29.132;2023-02-27T09:30:51;21.70;39.50
8945;DHT22;4507;40.232;29.132;2023-02-27T09:33:20;21.80;38.40
8945;DHT22;4507;40.232;29.132;2023-02-27T09:35:49;21.90;38.30
8945;DHT22;4507;40.232;29.132;2023-02-27T09:38:17;22.00;37.70
8945;DHT22;4507;40.232;29.132;2023-02-27T09:40:49;22.00;37.60
8945;DHT22;4507;40.232;29.132;2023-02-27T09:43:21;22.00;37.80
8945;DHT22;4507;40.232;29.132;2023-02-27T09:45:54;22.00;38.00
8945;DHT22;4507;40.232;29.132;2023-02-27T09:48:28;22.00;38.00
8945;DHT22;4507;40.232;29.132;2023-02-27T09:50:59;22.10;38.20
8945;DHT22;4507;40.232;29.132;2023-02-27T09:53:30;22.10;38.40
8945;DHT22;4507;40.232;29.132;2023-02-27T09:56:07;22.20;38.20
8945;DHT22;4507;40.232;29.132;2023-02-27T09:58:44;22.20;38.00
8945;DHT22;4507;40.232;29.132;2023-02-27T10:01:19;22.30;37.70
8945;DHT22;4507;40.232;29.132;2023-02-27T10:07:11;22.20;37.10
8945;DHT22;4507;40.232;29.132;2023-02-27T10:09:56;22.20;37.30
8945;DHT22;4507;40.232;29.132;2023-02-27T10:15:25;22.40;38.40
8945;DHT22;4507;40.232;29.132;2023-02-27T10:17:59;22.50;37.40
8945;DHT22;4507;40.232;29.132;2023-02-27T10:20:52;22.60;37.00
8945;DHT22;4507;40.232;29.132;2023-02-27T10:23:30;22.70;36.80
8945;DHT22;4507;40.232;29.132;2023-02-27T10:26:02;22.80;36.60
8945;DHT22;4507;40.232;29.132;2023-02-27T10:28:32;22.80;36.50
8945;DHT22;4507;40.232;29.132;2023-02-27T10:31:01;22.90;37.40
8945;DHT22;4507;40.232;29.132;2023-02-27T10:33:35;22.90;36.70
8945;DHT22;4507;40.232;29.132;2023-02-27T10:36:05;23.00;36.50
8945;DHT22;4507;40.232;29.132;2023-02-27T10:38:55;23.10;36.00
8945;DHT22;4507;40.232;29.132;2023-02-27T10:41:27;23.20;35.80
8945;DHT22;4507;40.232;29.132;2023-02-27T10:43:58;23.20;35.80
8945;DHT22;4507;40.232;29.132;2023-02-27T10:46:29;23.30;35.70
8945;DHT22;4507;40.232;29.132;2023-02-27T10:49:05;23.30;35.40
8945;DHT22;4507;40.232;29.132;2023-02-27T10:51:38;23.40;35.50
8945;DHT22;4507;40.232;29.132;2023-02-27T10:54:19;23.40;35.50
8945;DHT22;4507;40.232;29.132;2023-02-27T10:56:51;23.40;34.90
8945;DHT22;4507;40.232;29.132;2023-02-27T10:59:23;23.30;35.00
8945;DHT22;4507;40.232;29.132;2023-02-27T11:01:54;23.30;34.80
8945;DHT22;4507;40.232;29.132;2023-02-27T11:04:30;23.30;34.90
8945;DHT22;4507;40.232;29.132;2023-02-27T11:07:02;23.30;35.00
8945;DHT22;4507;40.232;29.132;2023-02-27T11:09:32;23.30;35.00
8945;DHT22;4507;40.232;29.132;2023-02-27T11:12:19;23.30;35.00
8945;DHT22;4507;40.232;29.132;2023-02-27T11:14:51;23.40;35.00
8945;DHT22;4507;40.232;29.132;2023-02-27T11:17:24;23.40;34.90
8945;DHT22;4507;40.232;29.132;2023-02-27T11:19:57;23.50;35.40
8945;DHT22;4507;40.232;29.132;2023-02-27T11:22:27;23.70;35.20
8945;DHT22;4507;40.232;29.132;2023-02-27T11:25:17;23.90;35.30
8945;DHT22;4507;40.232;29.132;2023-02-27T11:27:47;24.20;35.50
8945;DHT22;4507;40.232;29.132;2023-02-27T11:30:26;24.50;35.20
8945;DHT22;4507;40.232;29.132;2023-02-27T11:33:00;24.90;35.50
8945;DHT22;4507;40.232;29.132;2023-02-27T11:35:32;25.30;35.70
8945;DHT22;4507;40.232;29.132;2023-02-27T11:38:04;25.70;35.60
8945;DHT22;4507;40.232;29.132;2023-02-27T11:40:37;26.10;33.40
8945;DHT22;4507;40.232;29.132;2023-02-27T11:43:16;26.50;33.00
8945;DHT22;4507;40.232;29.132;2023-02-27T11:45:50;26.90;32.60
8945;DHT22;4507;40.232;29.132;2023-02-27T11:48:41;27.30;31.40
8945;DHT22;4507;40.232;29.132;2023-02-27T11:51:23;27.50;30.50
8945;DHT22;4507;40.232;29.132;2023-02-27T11:54:14;27.80;30.20
8945;DHT22;4507;40.232;29.132;2023-02-27T11:56:48;28.00;30.00
8945;DHT22;4507;40.232;29.132;2023-02-27T11:59:26;28.20;29.20
8945;DHT22;4507;40.232;29.132;2023-02-27T12:02:01;28.40;28.90
8945;DHT22;4507;40.232;29.132;2023-02-27T12:04:40;28.40;28.10
8945;DHT22;4507;40.232;29.132;2023-02-27T12:07:18;28.30;27.60
8945;DHT22;4507;40.232;29.132;2023-02-27T12:09:53;28.10;27.60
8945;DHT22;4507;40.232;29.132;2023-02-27T12:12:46;28.00;28.10
8945;DHT22;4507;40.232;29.132;2023-02-27T12:15:24;27.70;28.00
8945;DHT22;4507;40.232;29.132;2023-02-27T12:18:02;27.40;28.20
8945;DHT22;4507;40.232;29.132;2023-02-27T12:20:37;27.20;28.30
8945;DHT22;4507;40.232;29.132;2023-02-27T12:23:15;27.10;28.70
8945;DHT22;4507;40.232;29.132;2023-02-27T12:25:47;27.00;29.20
8945;DHT22;4507;40.232;29.132;2023-02-27T12:28:45;26.90;29.00
8945;DHT22;4507;40.232;29.132;2023-02-27T12:31:33;26.90;29.40
8945;DHT22;4507;40.232;29.132;2023-02-27T12:34:08;27.00;29.50
8945;DHT22;4507;40.232;29.132;2023-02-27T12:36:38;27.00;29.10
8945;DHT22;4507;40.232;29.132;2023-02-27T12:39:17;27.00;29.40
8945;DHT22;4507;40.232;29.132;2023-02-27T12:45:07;27.10;28.90
8945;DHT22;4507;40.232;29.132;2023-02-27T12:47:42;27.00;28.80
8945;DHT22;4507;40.232;29.132;2023-02-27T12:50:15;27.00;28.70
8945;DHT22;4507;40.232;29.132;2023-02-27T12:52:57;27.10;29.10
8945;DHT22;4507;40.232;29.132;2023-02-27T12:55:31;27.10;28.90
8945;DHT22;4507;40.232;29.132;2023-02-27T12:58:17;27.20;28.90
8945;DHT22;4507;40.232;29.132;2023-02-27T13:00:51;27.20;29.00
8945;DHT22;4507;40.232;29.132;2023-02-27T13:03:25;27.10;28.90
8945;DHT22;4507;40.232;29.132;2023-02-27T13:05:59;27.00;28.70
8945;DHT22;4507;40.232;29.132;2023-02-27T13:08:57;26.70;28.50
8945;DHT22;4507;40.232;29.132;2023-02-27T13:11:43;26.40;29.10
8945;DHT22;4507;40.232;29.132;2023-02-27T13:14:28;26.10;29.60
8945;DHT22;4507;40.232;29.132;2023-02-27T13:17:01;25.80;30.00
8945;DHT22;4507;40.232;29.132;2023-02-27T13:19:33;25.60;30.80
8945;DHT22;4507;40.232;29.132;2023-02-27T13:22:10;25.50;31.30
8945;DHT22;4507;40.232;29.132;2023-02-27T13:24:44;25.40;31.80
8945;DHT22;4507;40.232;29.132;2023-02-27T13:27:20;25.40;32.10
8945;DHT22;4507;40.232;29.132;2023-02-27T13:29:58;25.30;32.20
8945;DHT22;4507;40.232;29.132;2023-02-27T13:32:32;25.30;32.60
8945;DHT22;4507;40.232;29.132;2023-02-27T13:35:27;25.30;32.70
8945;DHT22;4507;40.232;29.132;2023-02-27T13:38:00;25.30;33.20
8945;DHT22;4507;40.232;29.132;2023-02-27T13:40:34;25.20;33.00
8945;DHT22;4507;40.232;29.132;2023-02-27T13:43:33;25.10;32.70
8945;DHT22;4507;40.232;29.132;2023-02-27T13:46:22;25.20;32.80
8945;DHT22;4507;40.232;29.132;2023-02-27T13:48:51;25.20;32.90
8945;DHT22;4507;40.232;29.132;2023-02-27T13:51:39;25.10;32.90
8945;DHT22;4507;40.232;29.132;2023-02-27T13:54:18;25.00;33.10
8945;DHT22;4507;40.232;29.132;2023-02-27T13:56:49;25.00;33.10
8945;DHT22;4507;40.232;29.132;2023-02-27T13:59:22;25.00;33.00
8945;DHT22;4507;40.232;29.132;2023-02-27T14:01:55;25.00;33.10
8945;DHT22;4507;40.232;29.132;2023-02-27T14:04:27;25.00;33.30
8945;DHT22;4507;40.232;29.132;2023-02-27T14:06:59;24.90;33.50
8945;DHT22;4507;40.232;29.132;2023-02-27T14:09:33;25.00;33.80
8945;DHT22;4507;40.232;29.132;2023-02-27T14:12:05;25.00;33.90
8945;DHT22;4507;40.232;29.132;2023-02-27T14:14:42;25.00;33.90
8945;DHT22;4507;40.232;29.132;2023-02-27T14:17:13;25.00;33.70
8945;DHT22;4507;40.232;29.132;2023-02-27T14:20:03;24.90;33.60
8945;DHT22;4507;40.232;29.132;2023-02-27T14:25:30;24.80;33.50
8945;DHT22;4507;40.232;29.132;2023-02-27T14:28:00;24.70;34.00
8945;DHT22;4507;40.232;29.132;2023-02-27T14:30:36;24.60;33.20
8945;DHT22;4507;40.232;29.132;2023-02-27T14:33:14;24.50;33.50
8945;DHT22;4507;40.232;29.132;2023-02-27T14:35:59;24.40;33.70
8945;DHT22;4507;40.232;29.132;2023-02-27T14:38:31;24.20;33.90
8945;DHT22;4507;40.232;29.132;2023-02-27T14:41:12;24.10;34.20
8945;DHT22;4507;40.232;29.132;2023-02-27T14:43:46;24.00;34.50
8945;DHT22;4507;40.232;29.132;2023-02-27T14:46:26;23.80;34.60
8945;DHT22;4507;40.232;29.132;2023-02-27T14:48:58;23.70;34.90
8945;DHT22;4507;40.232;29.132;2023-02-27T14:51:30;23.50;35.10
8945;DHT22;4507;40.232;29.132;2023-02-27T14:54:04;23.40;35.40
8945;DHT22;4507;40.232;29.132;2023-02-27T14:56:34;23.20;35.60
8945;DHT22;4507;40.232;29.132;2023-02-27T14:59:20;23.10;35.80
8945;DHT22;4507;40.232;29.132;2023-02-27T15:01:52;23.00;36.20
8945;DHT22;4507;40.232;29.132;2023-02-27T15:04:25;22.90;36.30
8945;DHT22;4507;40.232;29.132;2023-02-27T15:06:56;22.70;36.70
8945;DHT22;4507;40.232;29.132;2023-02-27T15:09:31;22.60;36.80
8945;DHT22;4507;40.232;29.132;2023-02-27T15:12:02;22.50;37.20
8945;DHT22;4507;40.232;29.132;2023-02-27T15:14:37;22.30;37.50
8945;DHT22;4507;40.232;29.132;2023-02-27T15:17:17;22.20;37.40
8945;DHT22;4507;40.232;29.132;2023-02-27T15:20:23;22.10;37.60
8945;DHT22;4507;40.232;29.132;2023-02-27T15:22:55;21.90;37.60
8945;DHT22;4507;40.232;29.132;2023-02-27T15:25:30;21.80;37.80
8945;DHT22;4507;40.232;29.132;2023-02-27T15:28:01;21.70;38.10
8945;DHT22;4507;40.232;29.132;2023-02-27T15:30:31;21.70;38.40
8945;DHT22;4507;40.232;29.132;2023-02-27T15:33:02;21.60;38.80
8945;DHT22;4507;40.232;29.132;2023-02-27T15:35:35;21.50;39.00
8945;DHT22;4507;40.232;29.132;2023-02-27T15:38:05;21.40;39.40
8945;DHT22;4507;40.232;29.132;2023-02-27T15:40:35;21.40;39.50
8945;DHT22;4507;40.232;29.132;2023-02-27T15:43:04;21.30;39.70
8945;DHT22;4507;40.232;29.132;2023-02-27T15:45:34;21.20;39.90
8945;DHT22;4507;40.232;29.132;2023-02-27T15:48:05;21.10;40.00
8945;DHT22;4507;40.232;29.132;2023-02-27T15:50:36;21.10;40.10
8945;DHT22;4507;40.232;29.132;2023-02-27T15:53:11;21.00;40.20
8945;DHT22;4507;40.232;29.132;2023-02-27T15:55:43;21.00;40.50
8945;DHT22;4507;40.232;29.132;2023-02-27T15:58:19;20.90;40.50
8945;DHT22;4507;40.232;29.132;2023-02-27T16:00:50;20.80;40.70
8945;DHT22;4507;40.232;29.132;2023-02-27T16:03:22;20.70;40.50
8945;DHT22;4507;40.232;29.132;2023-02-27T16:05:52;20.60;40.60
8945;DHT22;4507;40.232;29.132;2023-02-27T16:08:21;20.50;40.70
8945;DHT22;4507;40.232;29.132;2023-02-27T16:10:52;20.40;41.00
8945;DHT22;4507;40.232;29.132;2023-02-27T16:13:30;20.30;41.10
8945;DHT22;4507;40.232;29.132;2023-02-27T16:16:03;20.30;41.50
8945;DHT22;4507;40.232;29.132;2023-02-27T16:18:38;20.20;41.90
8945;DHT22;4507;40.232;29.132;2023-02-27T16:21:13;20.10;42.80
8945;DHT22;4507;40.232;29.132;2023-02-27T16:23:43;20.00;42.30
8945;DHT22;4507;40.232;29.132;2023-02-27T16:26:36;19.90;42.50
8945;DHT22;4507;40.232;29.132;2023-02-27T16:29:18;19.90;42.90
8945;DHT22;4507;40.232;29.132;2023-02-27T16:31:52;19.80;43.00
8945;DHT22;4507;40.232;29.132;2023-02-27T16:34:28;19.80;43.20
8945;DHT22;4507;40.232;29.132;2023-02-27T16:37:18;19.70;43.30
8945;DHT22;4507;40.232;29.132;2023-02-27T16:39:49;19.70;43.40
8945;DHT22;4507;40.232;29.132;2023-02-27T16:42:18;19.60;43.50
8945;DHT22;4507;40.232;29.132;2023-02-27T16:44:48;19.50;43.70
8945;DHT22;4507;40.232;29.132;2023-02-27T16:47:17;19.50;44.10